createdAt,value
2022-12-18T00:02:13.913Z,15.50
2022-12-18T00:04:40.701Z,15.45
2022-12-18T00:07:07.475Z,15.23
2022-12-18T00:09:39.817Z,16.02
2022-12-18T00:14:42.882Z,13.85
2022-12-18T00:17:10.133Z,13.90
2022-12-18T00:19:36.924Z,14.63
2022-12-18T00:22:03.691Z,14.43
2022-12-18T00:24:30.451Z,15.68
2022-12-18T00:26:57.117Z,16.05
2022-12-18T00:29:23.831Z,14.43
2022-12-18T00:31:50.597Z,16.17
2022-12-18T00:34:17.448Z,15.68
2022-12-18T00:36:44.163Z,16.50
2022-12-18T00:39:11.689Z,15.73
2022-12-18T00:41:57.042Z,16.38
2022-12-18T00:44:23.842Z,16.33
2022-12-18T00:46:50.920Z,15.93
2022-12-18T00:49:19.337Z,15.77
2022-12-18T00:51:46.486Z,15.93
2022-12-18T00:54:13.243Z,16.08
2022-12-18T00:56:48.465Z,15.07
2022-12-18T00:59:16.910Z,13.80
2022-12-18T01:01:43.812Z,14.35
2022-12-18T01:04:10.617Z,16.10
2022-12-18T01:06:37.433Z,16.20
2022-12-18T01:09:04.384Z,16.33
2022-12-18T01:11:31.760Z,16.05
2022-12-18T01:14:01.291Z,15.82
2022-12-18T01:16:28.332Z,15.68
2022-12-18T01:18:57.349Z,14.45
2022-12-18T01:21:25.044Z,15.57
2022-12-18T01:23:56.992Z,14.63
2022-12-18T01:26:24.568Z,14.57
2022-12-18T01:28:51.389Z,14.65
2022-12-18T01:31:30.224Z,14.60
2022-12-18T01:33:57.031Z,14.13
2022-12-18T01:36:32.922Z,14.60
2022-12-18T01:39:06.095Z,12.48
2022-12-18T01:41:52.420Z,14.52
2022-12-18T01:44:56.710Z,12.52
2022-12-18T01:47:44.601Z,13.67
2022-12-18T01:50:18.549Z,13.35
2022-12-18T01:52:52.579Z,13.48
2022-12-18T01:55:23.035Z,13.00
2022-12-18T01:57:53.427Z,13.68
2022-12-18T02:00:22.778Z,13.50
2022-12-18T02:02:50.051Z,15.13
2022-12-18T02:05:22.684Z,16.45
2022-12-18T02:08:11.590Z,15.48
2022-12-18T02:10:41.383Z,15.57
2022-12-18T02:13:29.082Z,16.17
2022-12-18T02:16:16.132Z,15.10
2022-12-18T02:18:48.752Z,15.18
2022-12-18T02:21:55.267Z,15.95
2022-12-18T02:24:42.959Z,15.30
2022-12-18T02:27:11.776Z,13.47
2022-12-18T02:30:00.559Z,14.88
2022-12-18T02:32:32.198Z,13.88
2022-12-18T02:35:00.410Z,13.35
2022-12-18T02:37:28.906Z,13.48
2022-12-18T02:39:59.307Z,13.83
2022-12-18T02:42:26.932Z,13.43
2022-12-18T02:44:56.286Z,14.52
2022-12-18T02:47:27.099Z,13.25
2022-12-18T02:50:15.238Z,14.05
2022-12-18T02:52:53.856Z,14.67
2022-12-18T02:55:30.589Z,14.10
2022-12-18T02:58:26.869Z,15.13
2022-12-18T03:01:17.465Z,14.65
2022-12-18T03:04:00.518Z,14.77
2022-12-18T03:06:34.315Z,16.03
2022-12-18T03:09:07.809Z,14.95
2022-12-18T03:11:55.692Z,15.43
2022-12-18T03:14:24.579Z,15.32
2022-12-18T03:16:55.747Z,15.23
2022-12-18T03:19:26.863Z,15.60
2022-12-18T03:21:57.207Z,15.77
2022-12-18T03:24:25.381Z,15.40
2022-12-18T03:27:01.033Z,14.85
2022-12-18T03:29:41.874Z,14.57
2022-12-18T03:32:42.189Z,14.83
2022-12-18T03:35:11.746Z,15.43
2022-12-18T03:37:38.698Z,13.48
2022-12-18T03:40:06.744Z,15.00
2022-12-18T03:42:53.681Z,13.38
2022-12-18T03:45:34.788Z,14.33
2022-12-18T03:48:07.111Z,14.13
2022-12-18T03:51:00.612Z,14.63
2022-12-18T03:53:53.296Z,13.95
2022-12-18T03:56:23.503Z,14.45
2022-12-18T03:58:52.286Z,14.27
2022-12-18T04:01:23.479Z,14.73
2022-12-18T04:03:51.687Z,14.48
2022-12-18T04:06:19.268Z,13.73
2022-12-18T04:08:47.587Z,14.20
2022-12-18T04:11:14.415Z,14.23
2022-12-18T04:13:43.444Z,14.52
2022-12-18T04:16:10.572Z,13.93
2022-12-18T04:18:37.563Z,15.30
2022-12-18T04:21:04.532Z,14.48
2022-12-18T04:23:31.286Z,13.87
2022-12-18T04:25:57.967Z,13.48
2022-12-18T04:28:24.677Z,14.05
2022-12-18T04:30:51.492Z,14.88
2022-12-18T04:33:18.279Z,13.85
2022-12-18T04:35:45.079Z,14.87
2022-12-18T04:38:11.874Z,14.38
2022-12-18T04:40:39.385Z,13.93
2022-12-18T04:43:08.033Z,14.80
2022-12-18T04:45:35.187Z,14.40
2022-12-18T04:48:03.844Z,13.93
2022-12-18T04:50:31.028Z,14.95
2022-12-18T04:52:58.478Z,15.13
2022-12-18T04:55:25.221Z,14.45
2022-12-18T04:57:52.075Z,13.80
2022-12-18T05:00:18.995Z,13.73
2022-12-18T05:02:45.858Z,14.18
2022-12-18T05:05:12.687Z,13.93
2022-12-18T05:07:39.687Z,14.15
2022-12-18T05:10:06.876Z,14.50
2022-12-18T05:12:33.964Z,14.07
2022-12-18T05:15:00.676Z,13.55
2022-12-18T05:17:27.428Z,14.45
2022-12-18T05:19:54.146Z,14.20
2022-12-18T05:22:20.870Z,13.15
2022-12-18T05:24:47.736Z,13.40
2022-12-18T05:27:14.522Z,13.15
2022-12-18T05:29:41.275Z,13.73
2022-12-18T05:32:08.039Z,12.73
2022-12-18T05:34:34.741Z,13.55
2022-12-18T05:37:01.463Z,13.30
2022-12-18T05:39:28.126Z,13.20
2022-12-18T05:41:54.833Z,13.73
2022-12-18T05:44:21.550Z,13.05
2022-12-18T05:46:48.338Z,12.93
2022-12-18T05:49:15.128Z,13.57
2022-12-18T05:51:41.860Z,13.13
2022-12-18T05:54:09.327Z,13.05
2022-12-18T05:56:37.031Z,12.77
2022-12-18T05:59:04.032Z,13.52
2022-12-18T06:01:30.804Z,13.40
2022-12-18T06:03:58.038Z,13.75
2022-12-18T06:06:27.544Z,13.73
2022-12-18T06:08:55.328Z,13.10
2022-12-18T06:11:27.389Z,13.15
2022-12-18T06:13:58.772Z,13.50
2022-12-18T06:16:27.471Z,12.93
2022-12-18T06:18:56.666Z,13.60
2022-12-18T06:21:23.601Z,13.45
2022-12-18T06:23:50.297Z,14.20
2022-12-18T06:26:17.191Z,14.50
2022-12-18T06:28:43.914Z,14.50
2022-12-18T06:31:11.250Z,14.32
2022-12-18T06:33:38.978Z,14.93
2022-12-18T06:36:11.398Z,15.03
2022-12-18T06:38:42.149Z,15.55
2022-12-18T06:41:17.677Z,15.00
2022-12-18T06:43:44.936Z,16.05
2022-12-18T06:46:12.746Z,16.40
2022-12-18T06:48:39.958Z,16.27
2022-12-18T06:51:06.783Z,15.10
2022-12-18T06:53:34.282Z,16.00
2022-12-18T06:56:09.902Z,15.48
2022-12-18T06:58:37.864Z,15.48
2022-12-18T07:01:07.286Z,15.25
2022-12-18T07:03:34.221Z,15.80
2022-12-18T07:06:01.050Z,15.00
2022-12-18T07:08:29.425Z,14.75
2022-12-18T07:10:56.610Z,14.98
2022-12-18T07:13:23.568Z,15.00
2022-12-18T07:15:50.569Z,14.18
2022-12-18T07:18:17.258Z,14.27
2022-12-18T07:20:43.971Z,13.05
2022-12-18T07:23:10.667Z,14.07
2022-12-18T07:25:38.128Z,13.63
2022-12-18T07:28:05.407Z,13.53
2022-12-18T07:30:32.194Z,13.13
2022-12-18T07:32:58.883Z,13.25
2022-12-18T07:35:25.659Z,13.18
2022-12-18T07:37:52.489Z,12.80
2022-12-18T07:40:19.210Z,12.00
2022-12-18T07:42:46.004Z,12.00
2022-12-18T07:45:12.756Z,12.38
2022-12-18T07:47:39.451Z,10.48
2022-12-18T07:50:07.108Z,9.63
2022-12-18T07:52:33.870Z,11.85
2022-12-18T07:55:00.987Z,12.43
2022-12-18T07:57:49.505Z,11.50
2022-12-18T08:00:15.176Z,11.77
2022-12-18T08:02:42.272Z,12.03
2022-12-18T08:05:21.736Z,11.55
2022-12-18T08:07:48.415Z,12.35
2022-12-18T08:10:15.182Z,11.45
2022-12-18T08:12:41.894Z,11.95
2022-12-18T08:15:10.351Z,12.63
2022-12-18T08:17:37.626Z,11.35
2022-12-18T08:20:04.919Z,10.93
2022-12-18T08:22:32.301Z,12.30
2022-12-18T08:24:59.048Z,11.65
2022-12-18T08:27:29.971Z,10.87
2022-12-18T08:29:57.884Z,11.27
2022-12-18T08:32:29.607Z,10.68
2022-12-18T08:34:56.443Z,10.40
2022-12-18T08:37:23.225Z,9.02
2022-12-18T08:39:49.985Z,10.20
2022-12-18T08:42:35.179Z,7.18
2022-12-18T08:45:02.496Z,10.82
2022-12-18T08:47:29.516Z,9.95
2022-12-18T08:49:56.277Z,9.32
2022-12-18T08:52:22.988Z,10.40
2022-12-18T08:54:49.711Z,10.55
2022-12-18T08:57:17.202Z,10.20
2022-12-18T08:59:44.284Z,10.85
2022-12-18T09:02:12.452Z,10.40
2022-12-18T09:04:40.790Z,10.67
2022-12-18T09:07:07.682Z,10.70
2022-12-18T09:09:34.413Z,10.65
2022-12-18T09:12:01.216Z,10.88
2022-12-18T09:14:27.972Z,11.43
2022-12-18T09:16:54.692Z,11.30
2022-12-18T09:19:21.754Z,11.30
2022-12-18T09:21:48.699Z,11.00
2022-12-18T09:24:16.128Z,10.10
2022-12-18T09:26:43.478Z,11.95
2022-12-18T09:29:13.644Z,11.07
2022-12-18T09:31:40.610Z,10.73
2022-12-18T09:34:08.107Z,10.82
2022-12-18T09:36:34.891Z,11.82
2022-12-18T09:39:05.120Z,11.48
2022-12-18T09:41:40.797Z,11.17
2022-12-18T09:44:19.493Z,10.75
2022-12-18T09:47:00.525Z,11.45
2022-12-18T09:49:30.772Z,11.07
2022-12-18T09:52:12.487Z,10.95
2022-12-18T09:54:45.229Z,11.83
2022-12-18T09:57:16.636Z,11.10
2022-12-18T09:59:47.377Z,11.68
2022-12-18T10:02:26.647Z,11.23
2022-12-18T10:05:11.456Z,11.68
2022-12-18T10:07:44.252Z,11.17
2022-12-18T10:10:24.747Z,11.90
2022-12-18T10:13:04.551Z,10.85
2022-12-18T10:15:38.759Z,10.98
2022-12-18T10:18:30.016Z,12.48
2022-12-18T10:21:04.748Z,11.87
2022-12-18T10:23:31.939Z,11.82
2022-12-18T10:26:10.928Z,11.43
2022-12-18T10:28:41.117Z,11.73
2022-12-18T10:31:15.445Z,12.43
2022-12-18T10:33:42.387Z,11.87
2022-12-18T10:36:09.191Z,10.95
2022-12-18T10:38:36.167Z,12.13
2022-12-18T10:41:18.469Z,10.82
2022-12-18T10:43:45.726Z,12.00
2022-12-18T10:46:12.507Z,11.83
2022-12-18T10:48:57.164Z,11.00
2022-12-18T10:51:31.753Z,11.55
2022-12-18T10:54:23.260Z,11.02
2022-12-18T10:56:50.708Z,11.40
2022-12-18T10:59:19.070Z,12.03
2022-12-18T11:01:51.872Z,11.18
2022-12-18T11:04:26.495Z,11.13
2022-12-18T11:07:12.018Z,11.57
2022-12-18T11:09:41.057Z,9.93
2022-12-18T11:12:18.680Z,10.63
2022-12-18T11:14:54.338Z,10.07
2022-12-18T11:17:27.135Z,10.43
2022-12-18T11:20:01.237Z,10.27
2022-12-18T11:22:29.279Z,11.18
2022-12-18T11:25:30.746Z,10.60
2022-12-18T11:27:56.048Z,10.20
2022-12-18T11:30:24.938Z,10.50
2022-12-18T11:33:07.617Z,10.77
2022-12-18T11:35:46.747Z,10.20
2022-12-18T11:38:32.026Z,10.03
2022-12-18T11:41:14.057Z,9.95
2022-12-18T11:43:55.228Z,10.25
2022-12-18T11:46:35.520Z,9.80
2022-12-18T11:49:18.327Z,10.38
2022-12-18T11:51:56.693Z,10.50
2022-12-18T11:54:23.521Z,10.30
2022-12-18T11:57:04.590Z,9.55
2022-12-18T11:59:43.440Z,10.10
2022-12-18T12:02:15.982Z,9.98
2022-12-18T12:05:07.088Z,10.47
2022-12-18T12:07:36.659Z,10.18
2022-12-18T12:10:28.438Z,9.73
2022-12-18T12:12:59.186Z,10.05
2022-12-18T12:15:44.032Z,10.10
2022-12-18T12:18:36.215Z,10.77
2022-12-18T12:21:12.028Z,9.52
2022-12-18T12:23:47.117Z,11.07
2022-12-18T12:26:34.137Z,10.48
2022-12-18T12:29:03.714Z,11.10
2022-12-18T12:31:53.585Z,10.23
2022-12-18T12:34:27.560Z,10.48
2022-12-18T12:37:09.456Z,10.57
2022-12-18T12:39:38.992Z,11.30
2022-12-18T12:42:32.826Z,10.43
2022-12-18T12:45:02.695Z,10.67
2022-12-18T12:47:39.008Z,10.27
2022-12-18T12:50:15.492Z,10.80
2022-12-18T12:52:50.756Z,10.68
2022-12-18T12:55:22.395Z,10.95
2022-12-18T12:58:04.128Z,11.27
2022-12-18T13:00:56.195Z,11.85
2022-12-18T13:03:38.271Z,10.80
2022-12-18T13:06:17.416Z,10.85
2022-12-18T13:09:00.988Z,10.82
2022-12-18T13:12:07.319Z,11.10
2022-12-18T13:14:37.521Z,9.85
2022-12-18T13:17:22.571Z,11.00
2022-12-18T13:20:17.108Z,10.50
2022-12-18T13:22:49.928Z,11.40
2022-12-18T13:25:37.171Z,10.70
2022-12-18T13:28:13.726Z,11.27
2022-12-18T13:30:56.954Z,11.23
2022-12-18T13:33:28.017Z,11.10
2022-12-18T13:36:15.487Z,10.70
2022-12-18T13:38:43.064Z,11.43
2022-12-18T13:41:16.357Z,11.73
2022-12-18T13:43:52.414Z,11.55
2022-12-18T13:46:21.113Z,11.05
2022-12-18T13:49:14.382Z,11.18
2022-12-18T13:51:50.381Z,10.73
2022-12-18T13:54:41.358Z,11.32
2022-12-18T13:57:36.646Z,10.07
2022-12-18T14:00:22.919Z,10.73
2022-12-18T14:02:51.350Z,11.32
2022-12-18T14:05:26.262Z,10.50
2022-12-18T14:08:00.216Z,10.68
2022-12-18T14:10:49.482Z,10.48
2022-12-18T14:13:29.094Z,10.80
2022-12-18T14:15:59.231Z,11.25
2022-12-18T14:18:47.107Z,10.90
2022-12-18T14:21:24.394Z,12.13
2022-12-18T14:24:15.470Z,11.10
2022-12-18T14:26:45.250Z,11.30
2022-12-18T14:29:24.994Z,11.30
2022-12-18T14:32:18.679Z,12.00
2022-12-18T14:34:51.631Z,10.63
2022-12-18T14:37:22.836Z,10.75
2022-12-18T14:40:08.723Z,11.02
2022-12-18T14:42:37.855Z,10.55
2022-12-18T14:45:43.339Z,10.80
2022-12-18T14:48:24.065Z,9.63
2022-12-18T14:51:03.623Z,11.48
2022-12-18T14:53:35.784Z,10.63
2022-12-18T14:56:04.619Z,10.95
2022-12-18T14:58:31.698Z,10.20
2022-12-18T15:00:58.700Z,11.27
2022-12-18T15:03:26.272Z,10.77
2022-12-18T15:05:53.830Z,11.90
2022-12-18T15:08:38.222Z,11.38
2022-12-18T15:11:25.035Z,11.20
2022-12-18T15:13:53.271Z,10.15
2022-12-18T15:16:20.183Z,11.30
2022-12-18T15:18:48.976Z,11.20
2022-12-18T15:21:20.169Z,11.48
2022-12-18T15:23:53.899Z,11.33
2022-12-18T15:26:22.680Z,10.73
2022-12-18T15:28:56.474Z,11.02
2022-12-18T15:31:25.143Z,10.73
2022-12-18T15:33:54.962Z,10.48
2022-12-18T15:36:26.295Z,9.90
2022-12-18T15:38:56.055Z,11.27
2022-12-18T15:41:35.999Z,11.07
2022-12-18T15:44:03.676Z,11.27
2022-12-18T15:46:31.780Z,10.57
2022-12-18T15:49:02.281Z,11.70
2022-12-18T15:51:39.779Z,11.35
2022-12-18T15:54:12.159Z,10.90
2022-12-18T15:56:57.436Z,10.50
2022-12-18T15:59:25.532Z,10.88
2022-12-18T16:01:56.014Z,10.53
2022-12-18T16:04:24.678Z,11.70
2022-12-18T16:07:14.816Z,11.15
2022-12-18T16:09:39.921Z,10.50
2022-12-18T16:12:07.953Z,11.18
2022-12-18T16:14:34.775Z,11.87
2022-12-18T16:17:06.320Z,10.90
2022-12-18T16:19:33.198Z,11.52
2022-12-18T16:22:00.460Z,10.82
2022-12-18T16:24:30.191Z,11.23
2022-12-18T16:27:00.174Z,11.77
2022-12-18T16:29:28.597Z,11.65
2022-12-18T16:32:00.628Z,11.85
2022-12-18T16:34:29.480Z,11.60
2022-12-18T16:37:05.976Z,11.00
2022-12-18T16:39:35.275Z,11.30
2022-12-18T16:42:15.590Z,11.68
2022-12-18T16:44:42.641Z,11.27
2022-12-18T16:47:10.161Z,10.88
2022-12-18T16:49:38.736Z,11.38
2022-12-18T16:52:06.541Z,10.90
2022-12-18T16:54:35.060Z,9.77
2022-12-18T16:57:02.287Z,10.20
2022-12-18T16:59:29.401Z,11.23
2022-12-18T17:01:57.434Z,11.00
2022-12-18T17:04:24.427Z,11.10
2022-12-18T17:06:53.432Z,11.90
2022-12-18T17:09:25.367Z,10.98
2022-12-18T17:11:53.368Z,10.85
2022-12-18T17:14:23.083Z,11.73
2022-12-18T17:17:07.323Z,12.07
2022-12-18T17:19:37.022Z,11.32
2022-12-18T17:22:04.860Z,10.77
2022-12-18T17:24:35.148Z,11.60
2022-12-18T17:27:03.384Z,10.70
2022-12-18T17:29:30.503Z,11.50
2022-12-18T17:31:58.040Z,11.15
2022-12-18T17:34:27.520Z,11.00
2022-12-18T17:36:54.367Z,11.45
2022-12-18T17:39:22.644Z,11.20
2022-12-18T17:41:49.907Z,11.77
2022-12-18T17:44:17.693Z,12.05
2022-12-18T17:46:44.752Z,9.88
2022-12-18T17:49:12.107Z,11.98
2022-12-18T17:51:39.192Z,11.45
2022-12-18T17:54:06.487Z,12.40
2022-12-18T17:56:33.292Z,11.00
2022-12-18T17:59:00.552Z,11.23
2022-12-18T18:01:28.205Z,11.48
2022-12-18T18:03:57.848Z,11.43
2022-12-18T18:06:24.767Z,11.33
2022-12-18T18:08:52.278Z,11.30
2022-12-18T18:11:39.711Z,11.43
2022-12-18T18:14:16.127Z,11.40
2022-12-18T18:16:45.617Z,11.65
2022-12-18T18:19:17.150Z,11.00
2022-12-18T18:21:48.732Z,11.70
2022-12-18T18:24:18.724Z,11.65
2022-12-18T18:26:47.463Z,12.30
2022-12-18T18:29:20.961Z,11.75
2022-12-18T18:31:48.045Z,11.83
2022-12-18T18:34:21.863Z,11.90
2022-12-18T18:36:50.310Z,11.80
2022-12-18T18:39:17.724Z,11.63
2022-12-18T18:41:47.868Z,11.75
2022-12-18T18:44:20.529Z,11.13
2022-12-18T18:46:56.504Z,11.18
2022-12-18T18:49:27.105Z,11.57
2022-12-18T18:51:57.967Z,15.32
2022-12-18T18:54:25.986Z,12.30
2022-12-18T18:59:40.083Z,16.10
2022-12-18T19:02:09.382Z,14.02
2022-12-18T19:04:40.028Z,12.75
2022-12-18T19:07:13.292Z,13.75
2022-12-18T19:09:42.006Z,13.37
2022-12-18T19:12:28.459Z,13.18
2022-12-18T19:14:55.726Z,13.10
2022-12-18T19:17:27.915Z,12.85
2022-12-18T19:19:56.636Z,13.30
2022-12-18T19:22:23.982Z,13.57
2022-12-18T19:24:50.751Z,12.80
2022-12-18T19:27:17.432Z,12.90
2022-12-18T19:29:44.174Z,17.25
2022-12-18T19:32:17.331Z,13.02
2022-12-18T19:34:44.137Z,12.67
2022-12-18T19:37:14.057Z,12.98
2022-12-18T19:39:41.399Z,12.02
2022-12-18T19:42:08.137Z,12.52
2022-12-18T19:44:35.167Z,13.77
2022-12-18T19:47:01.853Z,13.30
2022-12-18T19:49:28.620Z,13.18
2022-12-18T19:51:55.431Z,13.45
2022-12-18T19:54:22.236Z,13.20
2022-12-18T19:56:49.195Z,13.05
2022-12-18T19:59:15.957Z,15.40
2022-12-18T20:01:42.932Z,15.02
2022-12-18T20:04:09.855Z,14.27
2022-12-18T20:06:49.713Z,13.60
2022-12-18T20:09:17.044Z,13.77
2022-12-18T20:11:44.797Z,13.67
2022-12-18T20:14:14.332Z,12.02
2022-12-18T20:16:44.687Z,13.23
2022-12-18T20:19:13.308Z,12.57
2022-12-18T20:21:41.382Z,12.88
2022-12-18T20:24:08.687Z,17.57
2022-12-18T20:26:35.556Z,13.98
2022-12-18T20:29:02.303Z,14.15
2022-12-18T20:31:29.340Z,12.48
2022-12-18T20:33:59.714Z,12.93
2022-12-18T20:36:29.401Z,12.97
2022-12-18T20:39:00.502Z,14.85
2022-12-18T20:41:37.635Z,13.55
2022-12-18T20:44:22.629Z,12.73
2022-12-18T20:46:56.267Z,13.52
2022-12-18T20:49:24.590Z,12.47
2022-12-18T20:51:53.342Z,13.32
2022-12-18T20:54:21.154Z,13.52
2022-12-18T20:56:47.962Z,13.13
2022-12-18T20:59:14.827Z,12.85
2022-12-18T21:01:48.883Z,13.90
2022-12-18T21:04:18.293Z,13.82
2022-12-18T21:06:49.435Z,12.95
2022-12-18T21:09:18.962Z,13.55
2022-12-18T21:12:04.155Z,13.05
2022-12-18T21:14:31.206Z,13.43
2022-12-18T21:17:00.881Z,14.57
2022-12-18T21:19:28.336Z,14.23
2022-12-18T21:21:56.632Z,12.73
2022-12-18T21:24:23.984Z,12.88
2022-12-18T21:26:53.240Z,12.60
2022-12-18T21:29:23.328Z,12.45
2022-12-18T21:31:50.803Z,13.32
2022-12-18T21:34:23.089Z,13.07
2022-12-18T21:36:50.229Z,13.32
2022-12-18T21:39:18.069Z,12.87
2022-12-18T21:42:05.532Z,12.80
2022-12-18T21:44:36.145Z,13.13
2022-12-18T21:47:15.277Z,12.93
2022-12-18T21:49:49.220Z,12.98
2022-12-18T21:52:15.956Z,14.13
2022-12-18T21:54:42.634Z,14.02
2022-12-18T21:57:11.061Z,14.50
2022-12-18T21:59:45.858Z,14.38
2022-12-18T22:02:16.116Z,13.43
2022-12-18T22:04:44.440Z,13.43
2022-12-18T22:07:12.455Z,13.70
2022-12-18T22:09:44.373Z,13.75
2022-12-18T22:12:13.871Z,13.63
2022-12-18T22:14:40.647Z,14.02
2022-12-18T22:17:07.453Z,14.20
2022-12-18T22:19:41.048Z,12.98
2022-12-18T22:22:09.689Z,13.55
2022-12-18T22:24:36.669Z,13.18
2022-12-18T22:27:03.463Z,13.88
2022-12-18T22:29:49.344Z,11.97
2022-12-18T22:32:29.403Z,10.90
2022-12-18T22:35:04.584Z,14.10
2022-12-18T22:37:33.840Z,12.73
2022-12-18T22:40:02.972Z,13.23
2022-12-18T22:42:31.076Z,13.97
2022-12-18T22:44:57.824Z,13.85
2022-12-18T22:47:29.365Z,12.73
2022-12-18T22:49:57.240Z,11.70
2022-12-18T22:52:24.775Z,13.30
2022-12-18T22:54:53.239Z,14.03
2022-12-18T22:57:21.786Z,13.18
2022-12-18T22:59:49.489Z,13.32
2022-12-18T23:02:17.718Z,13.35
2022-12-18T23:04:45.022Z,12.07
2022-12-18T23:07:12.051Z,13.33
2022-12-18T23:09:39.927Z,13.65
2022-12-18T23:12:07.324Z,13.00
2022-12-18T23:14:34.182Z,11.40
2022-12-18T23:17:00.903Z,13.80
2022-12-18T23:19:27.616Z,13.07
2022-12-18T23:21:57.741Z,12.23
2022-12-18T23:24:28.580Z,13.68
2022-12-18T23:26:58.034Z,13.00
2022-12-18T23:29:24.780Z,13.75
2022-12-18T23:31:51.577Z,12.20
2022-12-18T23:34:18.351Z,14.13
2022-12-18T23:36:45.832Z,12.25
2022-12-18T23:39:24.385Z,12.48
2022-12-18T23:41:58.333Z,13.70
2022-12-18T23:44:25.760Z,12.50
2022-12-18T23:46:52.947Z,12.40
2022-12-18T23:49:19.791Z,13.48
2022-12-18T23:51:46.472Z,13.93
2022-12-18T23:54:13.253Z,13.00
2022-12-18T23:56:40.097Z,12.90
2022-12-18T23:59:06.833Z,12.70
